Stanfield, Oregon
Current Conditions -  °F | °C
As of 11:53 AM on Thursday 23 Oct 2014 (Local Time) from KHRI Reporting Station
Light Rain Light Rain  
Wind Chill: 56°   Ceiling: 6000
Heat Index: 56°   Visibility: 10mi
Dew Point: 52°   Wind: 3mph
Humidity: 87%   Direction: 250°WSW
Pressure: 29.84"   Gusts: NA
Location:  45.78°N, 119.22°W
Report Text: KHRI 231853Z AUTO 25003KT 10SM -RA SCT030 BKN060 OVC075 13/11 A2984 RMK AO2 SLP103 P0001 T01330111
Loading
Personal Weather Stations






























Interactive Weather Map
Tropical Storm Tracking
New forecast layout! Learn more

10-Day Weather Forecast

Advertisements
Track Severe Weather on mobile